sensor_id;sensor_type;location;lat;lon;timestamp;P1;durP1;ratioP1;P2;durP2;ratioP2
64110;SDS011;50401;48.188;11.566;2023-02-13T00:01:06;82.65;;;18.48;;
64110;SDS011;50401;48.188;11.566;2023-02-13T00:03:32;64.53;;;18.83;;
64110;SDS011;50401;48.188;11.566;2023-02-13T00:05:57;109.88;;;20.83;;
64110;SDS011;50401;48.188;11.566;2023-02-13T00:08:23;80.72;;;19.15;;
64110;SDS011;50401;48.188;11.566;2023-02-13T00:10:48;71.65;;;20.00;;
64110;SDS011;50401;48.188;11.566;2023-02-13T00:13:13;132.55;;;20.88;;
64110;SDS011;50401;48.188;11.566;2023-02-13T00:15:39;60.50;;;19.33;;
64110;SDS011;50401;48.188;11.566;2023-02-13T00:18:04;55.78;;;17.75;;
64110;SDS011;50401;48.188;11.566;2023-02-13T00:20:30;68.90;;;21.23;;
64110;SDS011;50401;48.188;11.566;2023-02-13T00:22:56;66.35;;;21.55;;
64110;SDS011;50401;48.188;11.566;2023-02-13T00:25:22;83.75;;;19.83;;
64110;SDS011;50401;48.188;11.566;2023-02-13T00:27:49;103.68;;;22.52;;
64110;SDS011;50401;48.188;11.566;2023-02-13T00:30:15;54.90;;;19.33;;
64110;SDS011;50401;48.188;11.566;2023-02-13T00:32:41;93.07;;;21.33;;
64110;SDS011;50401;48.188;11.566;2023-02-13T00:35:06;94.10;;;23.23;;
64110;SDS011;50401;48.188;11.566;2023-02-13T00:37:32;70.57;;;21.88;;
64110;SDS011;50401;48.188;11.566;2023-02-13T00:39:58;86.97;;;20.55;;
64110;SDS011;50401;48.188;11.566;2023-02-13T00:42:23;143.93;;;23.95;;
64110;SDS011;50401;48.188;11.566;2023-02-13T00:44:50;91.00;;;21.33;;
64110;SDS011;50401;48.188;11.566;2023-02-13T00:47:16;91.60;;;19.27;;
64110;SDS011;50401;48.188;11.566;2023-02-13T00:49:42;113.28;;;24.08;;
64110;SDS011;50401;48.188;11.566;2023-02-13T00:52:07;89.72;;;22.60;;
64110;SDS011;50401;48.188;11.566;2023-02-13T00:54:32;95.90;;;22.25;;
64110;SDS011;50401;48.188;11.566;2023-02-13T00:56:58;104.38;;;25.05;;
64110;SDS011;50401;48.188;11.566;2023-02-13T00:59:23;90.10;;;20.55;;
64110;SDS011;50401;48.188;11.566;2023-02-13T01:01:49;58.10;;;18.20;;
64110;SDS011;50401;48.188;11.566;2023-02-13T01:04:14;116.38;;;24.60;;
64110;SDS011;50401;48.188;11.566;2023-02-13T01:06:39;76.00;;;21.30;;
64110;SDS011;50401;48.188;11.566;2023-02-13T01:09:05;55.97;;;19.55;;
64110;SDS011;50401;48.188;11.566;2023-02-13T01:11:30;83.50;;;19.90;;
64110;SDS011;50401;48.188;11.566;2023-02-13T01:13:56;57.40;;;19.30;;
64110;SDS011;50401;48.188;11.566;2023-02-13T01:16:21;80.68;;;22.67;;
64110;SDS011;50401;48.188;11.566;2023-02-13T01:18:46;66.70;;;20.63;;
64110;SDS011;50401;48.188;11.566;2023-02-13T01:21:16;59.90;;;19.95;;
64110;SDS011;50401;48.188;11.566;2023-02-13T01:23:43;64.75;;;21.48;;
64110;SDS011;50401;48.188;11.566;2023-02-13T01:26:17;70.45;;;21.73;;
64110;SDS011;50401;48.188;11.566;2023-02-13T01:28:45;103.18;;;22.75;;
64110;SDS011;50401;48.188;11.566;2023-02-13T01:31:11;66.55;;;18.75;;
64110;SDS011;50401;48.188;11.566;2023-02-13T01:33:36;74.95;;;17.73;;
64110;SDS011;50401;48.188;11.566;2023-02-13T01:36:08;69.55;;;19.10;;
64110;SDS011;50401;48.188;11.566;2023-02-13T01:38:35;80.82;;;20.35;;
64110;SDS011;50401;48.188;11.566;2023-02-13T01:41:00;80.28;;;22.88;;
64110;SDS011;50401;48.188;11.566;2023-02-13T01:43:41;85.28;;;23.52;;
64110;SDS011;50401;48.188;11.566;2023-02-13T01:46:08;82.25;;;21.80;;
64110;SDS011;50401;48.188;11.566;2023-02-13T01:48:35;74.07;;;22.55;;
64110;SDS011;50401;48.188;11.566;2023-02-13T01:51:05;92.25;;;24.73;;
64110;SDS011;50401;48.188;11.566;2023-02-13T01:53:43;69.85;;;20.33;;
64110;SDS011;50401;48.188;11.566;2023-02-13T02:01:08;102.30;;;24.92;;
64110;SDS011;50401;48.188;11.566;2023-02-13T02:03:36;74.40;;;19.98;;
64110;SDS011;50401;48.188;11.566;2023-02-13T02:06:27;70.32;;;22.80;;
64110;SDS011;50401;48.188;11.566;2023-02-13T02:08:58;88.65;;;21.85;;
64110;SDS011;50401;48.188;11.566;2023-02-13T02:11:35;138.20;;;23.00;;
64110;SDS011;50401;48.188;11.566;2023-02-13T02:14:05;72.03;;;23.10;;
64110;SDS011;50401;48.188;11.566;2023-02-13T02:16:31;76.25;;;21.33;;
64110;SDS011;50401;48.188;11.566;2023-02-13T02:18:57;71.47;;;23.90;;
64110;SDS011;50401;48.188;11.566;2023-02-13T02:21:32;70.43;;;23.02;;
64110;SDS011;50401;48.188;11.566;2023-02-13T02:27:13;66.03;;;21.75;;
64110;SDS011;50401;48.188;11.566;2023-02-13T02:38:02;66.35;;;20.27;;
64110;SDS011;50401;48.188;11.566;2023-02-13T02:44:03;74.00;;;22.15;;
64110;SDS011;50401;48.188;11.566;2023-02-13T02:46:36;58.13;;;21.10;;
64110;SDS011;50401;48.188;11.566;2023-02-13T02:49:46;59.17;;;18.95;;
64110;SDS011;50401;48.188;11.566;2023-02-13T02:57:44;54.88;;;18.27;;
64110;SDS011;50401;48.188;11.566;2023-02-13T03:00:35;56.33;;;17.23;;
64110;SDS011;50401;48.188;11.566;2023-02-13T03:03:21;63.30;;;22.92;;
64110;SDS011;50401;48.188;11.566;2023-02-13T03:06:24;59.63;;;22.23;;
64110;SDS011;50401;48.188;11.566;2023-02-13T03:08:57;64.00;;;19.75;;
64110;SDS011;50401;48.188;11.566;2023-02-13T03:11:44;48.88;;;17.75;;
64110;SDS011;50401;48.188;11.566;2023-02-13T03:14:33;64.43;;;18.63;;
64110;SDS011;50401;48.188;11.566;2023-02-13T03:16:58;62.08;;;19.70;;
64110;SDS011;50401;48.188;11.566;2023-02-13T03:28:35;64.18;;;21.20;;
64110;SDS011;50401;48.188;11.566;2023-02-13T03:31:55;64.40;;;20.02;;
64110;SDS011;50401;48.188;11.566;2023-02-13T03:34:29;55.40;;;18.75;;
64110;SDS011;50401;48.188;11.566;2023-02-13T03:37:22;62.95;;;20.00;;
64110;SDS011;50401;48.188;11.566;2023-02-13T03:40:15;58.38;;;20.67;;
64110;SDS011;50401;48.188;11.566;2023-02-13T03:42:47;68.07;;;20.50;;
64110;SDS011;50401;48.188;11.566;2023-02-13T03:45:27;52.70;;;18.10;;
64110;SDS011;50401;48.188;11.566;2023-02-13T03:48:13;48.90;;;17.33;;
64110;SDS011;50401;48.188;11.566;2023-02-13T03:51:11;53.97;;;17.90;;
64110;SDS011;50401;48.188;11.566;2023-02-13T03:53:40;55.33;;;19.05;;
64110;SDS011;50401;48.188;11.566;2023-02-13T03:56:07;49.15;;;15.98;;
64110;SDS011;50401;48.188;11.566;2023-02-13T03:58:53;72.88;;;19.52;;
64110;SDS011;50401;48.188;11.566;2023-02-13T04:04:25;54.17;;;16.27;;
64110;SDS011;50401;48.188;11.566;2023-02-13T04:06:57;50.70;;;17.73;;
64110;SDS011;50401;48.188;11.566;2023-02-13T04:09:26;49.63;;;17.35;;
64110;SDS011;50401;48.188;11.566;2023-02-13T04:17:24;49.35;;;17.85;;
64110;SDS011;50401;48.188;11.566;2023-02-13T04:19:54;58.50;;;18.88;;
64110;SDS011;50401;48.188;11.566;2023-02-13T04:22:19;58.67;;;20.33;;
64110;SDS011;50401;48.188;11.566;2023-02-13T04:24:45;56.15;;;19.70;;
64110;SDS011;50401;48.188;11.566;2023-02-13T04:27:12;71.97;;;20.88;;
64110;SDS011;50401;48.188;11.566;2023-02-13T04:29:39;71.32;;;21.15;;
64110;SDS011;50401;48.188;11.566;2023-02-13T04:32:04;53.72;;;18.83;;
64110;SDS011;50401;48.188;11.566;2023-02-13T04:34:30;61.72;;;20.33;;
64110;SDS011;50401;48.188;11.566;2023-02-13T04:36:55;49.20;;;18.48;;
64110;SDS011;50401;48.188;11.566;2023-02-13T04:39:20;47.55;;;18.50;;
64110;SDS011;50401;48.188;11.566;2023-02-13T04:41:46;46.92;;;16.35;;
64110;SDS011;50401;48.188;11.566;2023-02-13T04:44:11;42.50;;;16.38;;
64110;SDS011;50401;48.188;11.566;2023-02-13T04:46:36;53.63;;;18.70;;
64110;SDS011;50401;48.188;11.566;2023-02-13T04:49:02;58.17;;;18.92;;
64110;SDS011;50401;48.188;11.566;2023-02-13T04:51:27;44.17;;;18.15;;
64110;SDS011;50401;48.188;11.566;2023-02-13T04:53:53;42.15;;;16.48;;
64110;SDS011;50401;48.188;11.566;2023-02-13T04:56:18;48.63;;;17.95;;
64110;SDS011;50401;48.188;11.566;2023-02-13T04:58:43;47.08;;;17.95;;
64110;SDS011;50401;48.188;11.566;2023-02-13T05:01:12;44.67;;;17.30;;
64110;SDS011;50401;48.188;11.566;2023-02-13T05:03:39;45.42;;;17.20;;
64110;SDS011;50401;48.188;11.566;2023-02-13T05:06:04;45.92;;;17.38;;
64110;SDS011;50401;48.188;11.566;2023-02-13T05:08:30;44.95;;;17.40;;
64110;SDS011;50401;48.188;11.566;2023-02-13T05:10:55;47.50;;;19.00;;
64110;SDS011;50401;48.188;11.566;2023-02-13T05:13:20;39.20;;;17.05;;
64110;SDS011;50401;48.188;11.566;2023-02-13T05:15:46;41.92;;;16.77;;
64110;SDS011;50401;48.188;11.566;2023-02-13T05:18:12;34.63;;;16.10;;
64110;SDS011;50401;48.188;11.566;2023-02-13T05:20:39;44.85;;;17.23;;
64110;SDS011;50401;48.188;11.566;2023-02-13T05:23:07;47.05;;;17.33;;
64110;SDS011;50401;48.188;11.566;2023-02-13T05:25:47;39.35;;;15.77;;
64110;SDS011;50401;48.188;11.566;2023-02-13T05:28:12;37.70;;;15.82;;
64110;SDS011;50401;48.188;11.566;2023-02-13T05:31:07;33.80;;;15.63;;
64110;SDS011;50401;48.188;11.566;2023-02-13T05:33:32;39.55;;;15.93;;
64110;SDS011;50401;48.188;11.566;2023-02-13T05:35:58;42.95;;;15.75;;
64110;SDS011;50401;48.188;11.566;2023-02-13T05:38:23;38.83;;;16.50;;
64110;SDS011;50401;48.188;11.566;2023-02-13T05:40:48;38.05;;;17.17;;
64110;SDS011;50401;48.188;11.566;2023-02-13T05:43:14;43.38;;;17.30;;
64110;SDS011;50401;48.188;11.566;2023-02-13T05:45:39;34.47;;;16.73;;
64110;SDS011;50401;48.188;11.566;2023-02-13T05:48:05;37.97;;;15.65;;
64110;SDS011;50401;48.188;11.566;2023-02-13T05:50:30;34.50;;;15.25;;
64110;SDS011;50401;48.188;11.566;2023-02-13T05:52:55;31.02;;;13.73;;
64110;SDS011;50401;48.188;11.566;2023-02-13T05:55:21;33.00;;;15.50;;
64110;SDS011;50401;48.188;11.566;2023-02-13T05:57:46;34.50;;;15.93;;
64110;SDS011;50401;48.188;11.566;2023-02-13T06:00:12;32.53;;;15.75;;
64110;SDS011;50401;48.188;11.566;2023-02-13T06:02:38;29.60;;;14.55;;
64110;SDS011;50401;48.188;11.566;2023-02-13T06:05:03;35.40;;;16.02;;
64110;SDS011;50401;48.188;11.566;2023-02-13T06:07:29;37.63;;;16.48;;
64110;SDS011;50401;48.188;11.566;2023-02-13T06:09:54;37.42;;;14.40;;
64110;SDS011;50401;48.188;11.566;2023-02-13T06:12:22;34.33;;;15.70;;
64110;SDS011;50401;48.188;11.566;2023-02-13T06:14:47;34.83;;;16.90;;
64110;SDS011;50401;48.188;11.566;2023-02-13T06:17:12;33.67;;;16.20;;
64110;SDS011;50401;48.188;11.566;2023-02-13T06:19:38;35.72;;;16.75;;
64110;SDS011;50401;48.188;11.566;2023-02-13T06:22:03;37.42;;;16.17;;
64110;SDS011;50401;48.188;11.566;2023-02-13T06:24:28;39.17;;;16.10;;
64110;SDS011;50401;48.188;11.566;2023-02-13T06:26:54;33.67;;;16.15;;
64110;SDS011;50401;48.188;11.566;2023-02-13T06:29:19;33.92;;;16.55;;
64110;SDS011;50401;48.188;11.566;2023-02-13T06:31:44;39.28;;;17.25;;
64110;SDS011;50401;48.188;11.566;2023-02-13T06:34:10;35.78;;;16.52;;
64110;SDS011;50401;48.188;11.566;2023-02-13T06:36:35;40.25;;;17.60;;
64110;SDS011;50401;48.188;11.566;2023-02-13T06:39:02;45.42;;;18.38;;
64110;SDS011;50401;48.188;11.566;2023-02-13T06:41:27;39.22;;;18.90;;
64110;SDS011;50401;48.188;11.566;2023-02-13T06:43:53;44.88;;;18.42;;
64110;SDS011;50401;48.188;11.566;2023-02-13T06:46:18;41.88;;;17.95;;
64110;SDS011;50401;48.188;11.566;2023-02-13T06:48:44;40.58;;;17.55;;
64110;SDS011;50401;48.188;11.566;2023-02-13T06:51:09;37.58;;;16.58;;
64110;SDS011;50401;48.188;11.566;2023-02-13T06:53:34;38.95;;;17.88;;
64110;SDS011;50401;48.188;11.566;2023-02-13T06:56:02;40.50;;;18.77;;
64110;SDS011;50401;48.188;11.566;2023-02-13T06:58:30;40.25;;;18.67;;
64110;SDS011;50401;48.188;11.566;2023-02-13T07:00:55;40.03;;;18.30;;
64110;SDS011;50401;48.188;11.566;2023-02-13T07:03:20;49.22;;;18.38;;
64110;SDS011;50401;48.188;11.566;2023-02-13T07:05:46;42.83;;;17.88;;
64110;SDS011;50401;48.188;11.566;2023-02-13T07:08:12;44.70;;;19.50;;
64110;SDS011;50401;48.188;11.566;2023-02-13T07:10:38;40.40;;;16.95;;
64110;SDS011;50401;48.188;11.566;2023-02-13T07:13:04;37.60;;;17.50;;
64110;SDS011;50401;48.188;11.566;2023-02-13T07:15:30;38.75;;;18.52;;
64110;SDS011;50401;48.188;11.566;2023-02-13T07:17:57;39.92;;;19.00;;
64110;SDS011;50401;48.188;11.566;2023-02-13T07:20:23;41.63;;;18.77;;
64110;SDS011;50401;48.188;11.566;2023-02-13T07:22:49;44.05;;;19.48;;
64110;SDS011;50401;48.188;11.566;2023-02-13T07:25:14;46.15;;;19.60;;
64110;SDS011;50401;48.188;11.566;2023-02-13T07:27:40;39.10;;;18.60;;
64110;SDS011;50401;48.188;11.566;2023-02-13T07:30:05;47.25;;;20.33;;
64110;SDS011;50401;48.188;11.566;2023-02-13T07:32:31;39.45;;;19.17;;
64110;SDS011;50401;48.188;11.566;2023-02-13T07:34:57;41.45;;;19.00;;
64110;SDS011;50401;48.188;11.566;2023-02-13T07:37:22;46.50;;;17.63;;
64110;SDS011;50401;48.188;11.566;2023-02-13T07:39:48;40.13;;;19.20;;
64110;SDS011;50401;48.188;11.566;2023-02-13T07:42:13;40.13;;;19.35;;
64110;SDS011;50401;48.188;11.566;2023-02-13T07:44:38;44.75;;;18.80;;
64110;SDS011;50401;48.188;11.566;2023-02-13T07:47:04;50.33;;;20.73;;
64110;SDS011;50401;48.188;11.566;2023-02-13T07:49:29;39.67;;;19.05;;
64110;SDS011;50401;48.188;11.566;2023-02-13T07:51:55;38.70;;;18.08;;
64110;SDS011;50401;48.188;11.566;2023-02-13T07:54:22;41.05;;;18.20;;
64110;SDS011;50401;48.188;11.566;2023-02-13T07:56:48;40.88;;;17.50;;
64110;SDS011;50401;48.188;11.566;2023-02-13T07:59:13;42.67;;;19.52;;
64110;SDS011;50401;48.188;11.566;2023-02-13T08:01:41;48.50;;;21.48;;
64110;SDS011;50401;48.188;11.566;2023-02-13T08:04:06;43.58;;;18.40;;
64110;SDS011;50401;48.188;11.566;2023-02-13T08:06:31;49.88;;;18.85;;
64110;SDS011;50401;48.188;11.566;2023-02-13T08:08:57;43.13;;;19.42;;
64110;SDS011;50401;48.188;11.566;2023-02-13T08:11:41;46.45;;;18.30;;
64110;SDS011;50401;48.188;11.566;2023-02-13T08:14:19;41.60;;;17.25;;
64110;SDS011;50401;48.188;11.566;2023-02-13T08:16:48;38.63;;;18.05;;
64110;SDS011;50401;48.188;11.566;2023-02-13T08:19:14;44.97;;;18.15;;
64110;SDS011;50401;48.188;11.566;2023-02-13T08:21:40;39.83;;;18.17;;
64110;SDS011;50401;48.188;11.566;2023-02-13T08:24:06;42.60;;;18.55;;
64110;SDS011;50401;48.188;11.566;2023-02-13T08:26:31;46.10;;;18.83;;
64110;SDS011;50401;48.188;11.566;2023-02-13T08:28:57;41.17;;;18.20;;
64110;SDS011;50401;48.188;11.566;2023-02-13T08:31:23;41.42;;;18.85;;
64110;SDS011;50401;48.188;11.566;2023-02-13T08:33:49;47.70;;;19.88;;
64110;SDS011;50401;48.188;11.566;2023-02-13T08:36:14;51.95;;;19.63;;
64110;SDS011;50401;48.188;11.566;2023-02-13T08:38:40;51.97;;;20.80;;
64110;SDS011;50401;48.188;11.566;2023-02-13T08:41:05;49.63;;;21.63;;
64110;SDS011;50401;48.188;11.566;2023-02-13T08:43:30;49.97;;;20.55;;
64110;SDS011;50401;48.188;11.566;2023-02-13T08:45:59;48.45;;;20.27;;
64110;SDS011;50401;48.188;11.566;2023-02-13T08:48:25;49.53;;;20.25;;
64110;SDS011;50401;48.188;11.566;2023-02-13T08:50:51;45.55;;;20.67;;
64110;SDS011;50401;48.188;11.566;2023-02-13T08:53:16;58.78;;;22.48;;
64110;SDS011;50401;48.188;11.566;2023-02-13T08:55:42;59.85;;;22.17;;
64110;SDS011;50401;48.188;11.566;2023-02-13T08:58:07;47.67;;;20.25;;
64110;SDS011;50401;48.188;11.566;2023-02-13T09:00:32;44.58;;;18.75;;
64110;SDS011;50401;48.188;11.566;2023-02-13T09:03:01;46.80;;;18.38;;
64110;SDS011;50401;48.188;11.566;2023-02-13T09:05:28;45.60;;;20.75;;
64110;SDS011;50401;48.188;11.566;2023-02-13T09:07:55;48.75;;;20.95;;
64110;SDS011;50401;48.188;11.566;2023-02-13T09:10:23;51.50;;;20.20;;
64110;SDS011;50401;48.188;11.566;2023-02-13T09:12:52;50.63;;;19.63;;
64110;SDS011;50401;48.188;11.566;2023-02-13T09:15:17;43.53;;;16.95;;
64110;SDS011;50401;48.188;11.566;2023-02-13T09:17:43;41.45;;;16.92;;
64110;SDS011;50401;48.188;11.566;2023-02-13T09:20:08;40.95;;;18.02;;
64110;SDS011;50401;48.188;11.566;2023-02-13T09:22:35;43.10;;;18.65;;
64110;SDS011;50401;48.188;11.566;2023-02-13T09:25:01;37.67;;;18.38;;
64110;SDS011;50401;48.188;11.566;2023-02-13T09:27:28;42.85;;;17.58;;
64110;SDS011;50401;48.188;11.566;2023-02-13T09:29:54;41.95;;;19.33;;
64110;SDS011;50401;48.188;11.566;2023-02-13T09:32:20;42.70;;;19.70;;
64110;SDS011;50401;48.188;11.566;2023-02-13T09:34:45;44.60;;;18.80;;
64110;SDS011;50401;48.188;11.566;2023-02-13T09:37:10;45.05;;;19.55;;
64110;SDS011;50401;48.188;11.566;2023-02-13T09:39:36;43.17;;;18.30;;
64110;SDS011;50401;48.188;11.566;2023-02-13T09:42:02;36.78;;;17.10;;
64110;SDS011;50401;48.188;11.566;2023-02-13T09:44:38;41.25;;;16.35;;
64110;SDS011;50401;48.188;11.566;2023-02-13T09:47:20;38.88;;;17.83;;
64110;SDS011;50401;48.188;11.566;2023-02-13T09:49:57;35.92;;;17.00;;
64110;SDS011;50401;48.188;11.566;2023-02-13T09:52:33;36.35;;;17.20;;
64110;SDS011;50401;48.188;11.566;2023-02-13T09:55:00;36.50;;;16.58;;
64110;SDS011;50401;48.188;11.566;2023-02-13T09:57:31;42.13;;;17.80;;
64110;SDS011;50401;48.188;11.566;2023-02-13T10:00:12;40.75;;;16.45;;
64110;SDS011;50401;48.188;11.566;2023-02-13T10:08:14;48.03;;;18.23;;
64110;SDS011;50401;48.188;11.566;2023-02-13T10:10:50;45.03;;;17.10;;
64110;SDS011;50401;48.188;11.566;2023-02-13T10:18:44;36.58;;;17.33;;
64110;SDS011;50401;48.188;11.566;2023-02-13T10:21:32;39.72;;;18.60;;
64110;SDS011;50401;48.188;11.566;2023-02-13T10:24:06;62.67;;;20.52;;
64110;SDS011;50401;48.188;11.566;2023-02-13T10:26:36;36.47;;;16.67;;
64110;SDS011;50401;48.188;11.566;2023-02-13T10:32:03;43.25;;;20.00;;
64110;SDS011;50401;48.188;11.566;2023-02-13T10:37:01;40.10;;;17.92;;
64110;SDS011;50401;48.188;11.566;2023-02-13T10:39:32;58.17;;;19.25;;
64110;SDS011;50401;48.188;11.566;2023-02-13T10:50:19;47.22;;;19.13;;
64110;SDS011;50401;48.188;11.566;2023-02-13T10:58:19;49.10;;;19.05;;
64110;SDS011;50401;48.188;11.566;2023-02-13T11:01:05;48.22;;;19.27;;
64110;SDS011;50401;48.188;11.566;2023-02-13T11:03:32;41.35;;;19.27;;
64110;SDS011;50401;48.188;11.566;2023-02-13T11:05:58;53.28;;;19.90;;
64110;SDS011;50401;48.188;11.566;2023-02-13T11:08:42;46.58;;;19.40;;
64110;SDS011;50401;48.188;11.566;2023-02-13T11:14:15;42.63;;;18.88;;
64110;SDS011;50401;48.188;11.566;2023-02-13T11:16:55;48.17;;;19.95;;
64110;SDS011;50401;48.188;11.566;2023-02-13T11:19:30;44.65;;;19.95;;
64110;SDS011;50401;48.188;11.566;2023-02-13T11:22:02;48.83;;;18.95;;
64110;SDS011;50401;48.188;11.566;2023-02-13T11:24:31;48.28;;;20.23;;
64110;SDS011;50401;48.188;11.566;2023-02-13T11:27:01;42.28;;;19.48;;
64110;SDS011;50401;48.188;11.566;2023-02-13T11:29:33;44.00;;;18.17;;
64110;SDS011;50401;48.188;11.566;2023-02-13T11:32:02;40.65;;;18.20;;
64110;SDS011;50401;48.188;11.566;2023-02-13T11:34:47;52.42;;;19.48;;
64110;SDS011;50401;48.188;11.566;2023-02-13T11:37:16;45.97;;;19.52;;
64110;SDS011;50401;48.188;11.566;2023-02-13T11:39:43;48.35;;;20.23;;
64110;SDS011;50401;48.188;11.566;2023-02-13T11:44:48;41.45;;;16.85;;
64110;SDS011;50401;48.188;11.566;2023-02-13T11:47:16;45.47;;;19.80;;
64110;SDS011;50401;48.188;11.566;2023-02-13T11:49:55;44.25;;;20.20;;
64110;SDS011;50401;48.188;11.566;2023-02-13T11:52:27;48.67;;;18.92;;
64110;SDS011;50401;48.188;11.566;2023-02-13T11:55:02;48.63;;;19.02;;
64110;SDS011;50401;48.188;11.566;2023-02-13T11:57:32;57.22;;;19.33;;
64110;SDS011;50401;48.188;11.566;2023-02-13T11:59:59;41.80;;;18.85;;
64110;SDS011;50401;48.188;11.566;2023-02-13T12:02:48;48.47;;;18.92;;
64110;SDS011;50401;48.188;11.566;2023-02-13T12:07:44;59.97;;;19.73;;
64110;SDS011;50401;48.188;11.566;2023-02-13T12:13:00;39.22;;;18.77;;
64110;SDS011;50401;48.188;11.566;2023-02-13T12:15:32;44.10;;;19.08;;
64110;SDS011;50401;48.188;11.566;2023-02-13T12:40:04;49.22;;;20.27;;
64110;SDS011;50401;48.188;11.566;2023-02-13T12:45:40;49.03;;;20.20;;
64110;SDS011;50401;48.188;11.566;2023-02-13T12:59:19;45.00;;;20.27;;
64110;SDS011;50401;48.188;11.566;2023-02-13T13:04:42;48.55;;;20.73;;
64110;SDS011;50401;48.188;11.566;2023-02-13T13:07:18;41.15;;;19.00;;
64110;SDS011;50401;48.188;11.566;2023-02-13T13:10:31;44.20;;;19.52;;
64110;SDS011;50401;48.188;11.566;2023-02-13T13:12:58;46.72;;;19.75;;
64110;SDS011;50401;48.188;11.566;2023-02-13T13:15:43;43.50;;;16.67;;
64110;SDS011;50401;48.188;11.566;2023-02-13T13:18:25;39.42;;;18.15;;
64110;SDS011;50401;48.188;11.566;2023-02-13T13:21:25;35.95;;;17.52;;
64110;SDS011;50401;48.188;11.566;2023-02-13T13:23:58;47.47;;;19.65;;
64110;SDS011;50401;48.188;11.566;2023-02-13T13:29:00;47.10;;;17.40;;
64110;SDS011;50401;48.188;11.566;2023-02-13T13:31:30;51.42;;;18.25;;
64110;SDS011;50401;48.188;11.566;2023-02-13T13:33:59;58.25;;;20.08;;
64110;SDS011;50401;48.188;11.566;2023-02-13T13:36:42;43.55;;;18.88;;
64110;SDS011;50401;48.188;11.566;2023-02-13T13:41:58;40.65;;;19.83;;
64110;SDS011;50401;48.188;11.566;2023-02-13T13:44:39;43.20;;;20.00;;
64110;SDS011;50401;48.188;11.566;2023-02-13T14:03:41;29.35;;;15.10;;
64110;SDS011;50401;48.188;11.566;2023-02-13T14:06:11;37.28;;;15.80;;
64110;SDS011;50401;48.188;11.566;2023-02-13T14:11:04;41.25;;;15.35;;
64110;SDS011;50401;48.188;11.566;2023-02-13T14:13:34;38.58;;;16.23;;
64110;SDS011;50401;48.188;11.566;2023-02-13T14:16:02;43.03;;;18.15;;
64110;SDS011;50401;48.188;11.566;2023-02-13T14:18:29;43.35;;;18.70;;
64110;SDS011;50401;48.188;11.566;2023-02-13T14:20:56;37.60;;;17.50;;
64110;SDS011;50401;48.188;11.566;2023-02-13T14:31:27;34.83;;;17.58;;
64110;SDS011;50401;48.188;11.566;2023-02-13T14:36:35;40.20;;;18.27;;
64110;SDS011;50401;48.188;11.566;2023-02-13T14:39:04;34.50;;;17.15;;
64110;SDS011;50401;48.188;11.566;2023-02-13T14:44:19;44.38;;;19.75;;
64110;SDS011;50401;48.188;11.566;2023-02-13T14:47:02;46.15;;;20.13;;
64110;SDS011;50401;48.188;11.566;2023-02-13T14:49:36;44.13;;;19.35;;
64110;SDS011;50401;48.188;11.566;2023-02-13T14:52:05;37.92;;;18.80;;
64110;SDS011;50401;48.188;11.566;2023-02-13T14:54:47;44.95;;;19.95;;
64110;SDS011;50401;48.188;11.566;2023-02-13T14:59:48;40.30;;;18.88;;
64110;SDS011;50401;48.188;11.566;2023-02-13T15:02:32;39.03;;;16.98;;
64110;SDS011;50401;48.188;11.566;2023-02-13T15:05:12;35.05;;;17.83;;
64110;SDS011;50401;48.188;11.566;2023-02-13T15:07:46;43.58;;;17.55;;
64110;SDS011;50401;48.188;11.566;2023-02-13T15:10:38;35.50;;;16.98;;
64110;SDS011;50401;48.188;11.566;2023-02-13T15:13:14;41.38;;;17.02;;
64110;SDS011;50401;48.188;11.566;2023-02-13T15:15:42;37.15;;;17.35;;
64110;SDS011;50401;48.188;11.566;2023-02-13T15:18:11;37.20;;;17.50;;
64110;SDS011;50401;48.188;11.566;2023-02-13T15:20:46;47.78;;;18.40;;
64110;SDS011;50401;48.188;11.566;2023-02-13T15:23:21;35.83;;;17.65;;
64110;SDS011;50401;48.188;11.566;2023-02-13T15:25:55;37.45;;;17.05;;
64110;SDS011;50401;48.188;11.566;2023-02-13T15:28:22;41.83;;;18.45;;
64110;SDS011;50401;48.188;11.566;2023-02-13T15:31:32;39.95;;;18.55;;
64110;SDS011;50401;48.188;11.566;2023-02-13T15:33:48;38.30;;;18.50;;
64110;SDS011;50401;48.188;11.566;2023-02-13T15:36:21;38.10;;;18.15;;
64110;SDS011;50401;48.188;11.566;2023-02-13T15:38:57;49.00;;;22.33;;
64110;SDS011;50401;48.188;11.566;2023-02-13T15:41:32;54.03;;;20.75;;
64110;SDS011;50401;48.188;11.566;2023-02-13T15:44:03;49.88;;;19.95;;
64110;SDS011;50401;48.188;11.566;2023-02-13T15:46:30;47.88;;;21.83;;
64110;SDS011;50401;48.188;11.566;2023-02-13T15:48:58;41.15;;;18.67;;
64110;SDS011;50401;48.188;11.566;2023-02-13T15:51:28;46.85;;;20.08;;
64110;SDS011;50401;48.188;11.566;2023-02-13T15:53:56;43.80;;;19.63;;
64110;SDS011;50401;48.188;11.566;2023-02-13T15:56:22;44.00;;;20.40;;
64110;SDS011;50401;48.188;11.566;2023-02-13T15:58:48;41.67;;;19.08;;
64110;SDS011;50401;48.188;11.566;2023-02-13T16:01:15;46.00;;;19.80;;
64110;SDS011;50401;48.188;11.566;2023-02-13T16:03:41;41.20;;;18.52;;
64110;SDS011;50401;48.188;11.566;2023-02-13T16:06:16;43.30;;;20.30;;
64110;SDS011;50401;48.188;11.566;2023-02-13T16:08:44;43.92;;;19.48;;
64110;SDS011;50401;48.188;11.566;2023-02-13T16:16:24;47.25;;;19.02;;
64110;SDS011;50401;48.188;11.566;2023-02-13T16:18:52;43.95;;;19.92;;
64110;SDS011;50401;48.188;11.566;2023-02-13T16:21:22;50.20;;;19.63;;
64110;SDS011;50401;48.188;11.566;2023-02-13T16:23:49;44.65;;;19.63;;
64110;SDS011;50401;48.188;11.566;2023-02-13T16:26:20;44.17;;;20.92;;
64110;SDS011;50401;48.188;11.566;2023-02-13T16:28:46;43.78;;;19.20;;
64110;SDS011;50401;48.188;11.566;2023-02-13T16:31:13;47.42;;;19.05;;
64110;SDS011;50401;48.188;11.566;2023-02-13T16:33:40;40.47;;;19.42;;
64110;SDS011;50401;48.188;11.566;2023-02-13T16:38:36;49.60;;;21.92;;
64110;SDS011;50401;48.188;11.566;2023-02-13T16:46:37;51.80;;;22.25;;
64110;SDS011;50401;48.188;11.566;2023-02-13T16:49:10;53.45;;;21.17;;
64110;SDS011;50401;48.188;11.566;2023-02-13T17:04:51;47.50;;;20.35;;
64110;SDS011;50401;48.188;11.566;2023-02-13T17:09:51;46.92;;;21.08;;
64110;SDS011;50401;48.188;11.566;2023-02-13T17:12:18;51.78;;;22.85;;
64110;SDS011;50401;48.188;11.566;2023-02-13T17:14:44;54.88;;;23.48;;
64110;SDS011;50401;48.188;11.566;2023-02-13T17:17:10;47.95;;;23.23;;
64110;SDS011;50401;48.188;11.566;2023-02-13T17:19:38;46.58;;;20.75;;
64110;SDS011;50401;48.188;11.566;2023-02-13T17:22:03;46.33;;;21.05;;
64110;SDS011;50401;48.188;11.566;2023-02-13T17:24:29;51.65;;;24.80;;
64110;SDS011;50401;48.188;11.566;2023-02-13T17:26:55;55.47;;;24.33;;
64110;SDS011;50401;48.188;11.566;2023-02-13T17:29:20;54.33;;;24.65;;
64110;SDS011;50401;48.188;11.566;2023-02-13T17:31:45;55.28;;;23.10;;
64110;SDS011;50401;48.188;11.566;2023-02-13T17:34:11;52.35;;;24.15;;
64110;SDS011;50401;48.188;11.566;2023-02-13T17:36:36;49.83;;;22.75;;